Disclaimer

Please do not use the information listed here in-flight or in-navigation, as they are not provided to us by the airports but are provided by volunteers, so they might be outdated.

Search


Regions


Airport information page

Radio informations:
Tower (TWR) - 118.225 MHz

Airport informations:
Latitude: 37° 01' 14.25" N
Longitude: 041° 11' 29.02" E
Elevation: 1480 feet - 451 meters
Operating hours: Remarks
Operating agency: Civil government, landing fees and diplomatic clearance may be required
Timezone: UTC+1(+2DT)
Fuel: Unknown fuel type or whether there is any fuel.

Runway information:
03/21 - 11860 x 150 feet< - >3615 x 46 meters

Recent METARs:
OSKL 211800Z 05012KT 4000 BR SCT026 BKN100 13/09 Q1018
OSKL 211900Z 07006KT 4000 BR SCT026 BKN100 13/09 Q1018
OSKL 211900Z 07006KT 4000 BR SCT026 BKN100 13/09 Q1018

Airport on the map: